Time;durP1;ratioP1;P1;durP2;ratioP2;P2;SDS_P1;SDS_P2;PMS_P1;PMS_P2;Temp;Humidity;BMP_temperature;BMP_pressure;BME280_temperature;BME280_humidity;BME280_pressure;Samples;Min_cycle;Max_cycle;Signal;HPM_P1;HPM_P2
2022/09/15 00:02:09;;;;;;;4.80;2.40;;;;;;;;;;5017382;28;20385;-69
2022/09/15 00:04:54;;;;;;;13.18;2.45;;;;;;;;;;5013955;28;20473;-67
2022/09/15 00:07:40;;;;;;;5.43;2.10;;;;;;;;;;5012191;28;20397;-68
2022/09/15 00:10:27;;;;;;;6.90;2.10;;;;;;;;;;5022196;28;20080;-70
2022/09/15 00:13:13;;;;;;;6.57;2.25;;;;;;;;;;5030816;28;20029;-70
2022/09/15 00:15:58;;;;;;;5.80;2.05;;;;;;;;;;5022640;28;20033;-71
2022/09/15 00:18:44;;;;;;;4.57;2.08;;;;;;;;;;5023633;28;20044;-69
2022/09/15 00:21:31;;;;;;;3.67;2.20;;;;;;;;;;5019806;28;20060;-70
2022/09/15 00:24:17;;;;;;;6.95;2.10;;;;;;;;;;5029555;28;20017;-70
2022/09/15 00:27:02;;;;;;;9.50;2.28;;;;;;;;;;5025540;28;20535;-70
2022/09/15 00:29:48;;;;;;;6.25;2.83;;;;;;;;;;5020292;28;20052;-68
2022/09/15 00:32:34;;;;;;;6.32;2.20;;;;;;;;;;5006398;28;20022;-68
2022/09/15 00:35:19;;;;;;;6.57;3.13;;;;;;;;;;5032414;28;20128;-68
2022/09/15 00:38:05;;;;;;;6.57;2.00;;;;;;;;;;5027779;28;20100;-70
2022/09/15 00:40:52;;;;;;;7.20;2.53;;;;;;;;;;5024647;28;20030;-68
2022/09/15 00:43:44;;;;;;;5.10;2.35;;;;;;;;;;5026687;28;20248;-69
2022/09/15 00:46:31;;;;;;;6.68;2.10;;;;;;;;;;5024463;28;20029;-71
2022/09/15 00:49:20;;;;;;;5.88;1.98;;;;;;;;;;5018256;28;20055;-72
2022/09/15 00:52:26;;;;;;;4.57;1.85;;;;;;;;;;5018462;28;20444;-72
2022/09/15 00:55:18;;;;;;;4.47;1.63;;;;;;;;;;5031720;28;20038;-70
2022/09/15 00:58:03;;;;;;;3.30;1.40;;;;;;;;;;5026612;28;20022;-70
2022/09/15 01:00:54;;;;;;;4.28;1.95;;;;;;;;;;5019713;28;20021;-68
2022/09/15 01:03:40;;;;;;;7.70;1.35;;;;;;;;;;5014862;28;20054;-62
2022/09/15 01:06:32;;;;;;;4.60;1.60;;;;;;;;;;5023130;28;20049;-67
2022/09/15 01:09:23;;;;;;;3.10;1.58;;;;;;;;;;5028427;28;20101;-68
2022/09/15 01:12:09;;;;;;;2.03;1.35;;;;;;;;;;5017448;28;20057;-68
2022/09/15 01:14:54;;;;;;;6.40;1.58;;;;;;;;;;5024202;28;20032;-67
2022/09/15 01:17:59;;;;;;;6.95;1.55;;;;;;;;;;5023938;28;20464;-67
2022/09/15 01:20:47;;;;;;;6.13;2.03;;;;;;;;;;5027098;28;20024;-69
2022/09/15 01:23:36;;;;;;;3.42;1.50;;;;;;;;;;5019520;28;20065;-62
2022/09/15 01:26:27;;;;;;;4.30;1.43;;;;;;;;;;5024603;28;20362;-62
2022/09/15 01:29:19;;;;;;;8.80;2.50;;;;;;;;;;5019718;28;20273;-62
2022/09/15 01:35:24;;;;;;;4.60;1.52;;;;;;;;;;5022074;28;20050;-64
2022/09/15 01:38:16;;;;;;;2.47;1.83;;;;;;;;;;5026732;28;20593;-70
2022/09/15 01:41:08;;;;;;;1.95;1.38;;;;;;;;;;5020863;28;20029;-64
2022/09/15 01:44:05;;;;;;;2.88;1.50;;;;;;;;;;5029268;28;20396;-64
2022/09/15 01:46:53;;;;;;;3.95;1.50;;;;;;;;;;5028769;28;20066;-65
2022/09/15 01:49:42;;;;;;;2.10;1.13;;;;;;;;;;5003018;28;20065;-62
2022/09/15 01:52:28;;;;;;;;;;;;;;;;;;5025814;28;20040;-65
2022/09/15 01:55:20;;;;;;;4.97;1.30;;;;;;;;;;5020798;28;19967;-63
2022/09/15 01:58:06;;;;;;;6.38;1.67;;;;;;;;;;5017523;28;20305;-68
2022/09/15 02:00:54;;;;;;;4.47;1.40;;;;;;;;;;5020648;28;20034;-69
2022/09/15 02:03:43;;;;;;;4.38;1.50;;;;;;;;;;5020926;28;20022;-69
2022/09/15 02:06:34;;;;;;;;;;;;;;;;;;5016994;28;20037;-68
2022/09/15 02:09:27;;;;;;;7.07;1.45;;;;;;;;;;5021817;28;19924;-70
2022/09/15 02:12:28;;;;;;;2.40;1.27;;;;;;;;;;5018702;28;20033;-70
2022/09/15 02:15:15;;;;;;;2.83;1.40;;;;;;;;;;5020775;28;20403;-71
2022/09/15 02:18:01;;;;;;;5.43;1.58;;;;;;;;;;5029039;28;20013;-71
2022/09/15 02:20:52;;;;;;;6.20;1.42;;;;;;;;;;5017910;28;20029;-70
2022/09/15 02:23:42;;;;;;;2.10;1.45;;;;;;;;;;5020695;28;20113;-71
2022/09/15 02:26:29;;;;;;;4.25;1.75;;;;;;;;;;5021140;28;20060;-71
2022/09/15 02:29:17;;;;;;;3.35;1.50;;;;;;;;;;5012322;28;20049;-71
2022/09/15 02:32:04;;;;;;;3.38;1.17;;;;;;;;;;5024537;28;20025;-71
2022/09/15 02:34:50;;;;;;;2.72;1.33;;;;;;;;;;5019613;28;20657;-71
2022/09/15 02:37:36;;;;;;;5.35;1.33;;;;;;;;;;5023325;28;20056;-65
2022/09/15 02:40:22;;;;;;;1.95;1.40;;;;;;;;;;5022194;28;20497;-64
2022/09/15 02:43:12;;;;;;;4.93;1.80;;;;;;;;;;5025332;28;20033;-64
2022/09/15 02:45:58;;;;;;;2.53;1.23;;;;;;;;;;5022737;28;20074;-65
2022/09/15 02:48:44;;;;;;;3.17;1.20;;;;;;;;;;5024811;28;20120;-63
2022/09/15 02:51:30;;;;;;;2.95;1.40;;;;;;;;;;5024109;28;20067;-69
2022/09/15 02:54:15;;;;;;;4.90;1.70;;;;;;;;;;5030850;28;20037;-69
2022/09/15 02:57:01;;;;;;;3.08;1.30;;;;;;;;;;5021073;28;20038;-65
2022/09/15 03:02:52;;;;;;;3.17;1.10;;;;;;;;;;5023584;28;20049;-65
2022/09/15 03:05:37;;;;;;;1.65;1.40;;;;;;;;;;5024488;28;20439;-65
2022/09/15 03:08:23;;;;;;;2.85;1.50;;;;;;;;;;5016142;28;20030;-64
2022/09/15 03:11:09;;;;;;;2.25;1.38;;;;;;;;;;5025580;28;20026;-72
2022/09/15 03:13:56;;;;;;;2.20;1.80;;;;;;;;;;5026203;28;20424;-69
2022/09/15 03:16:42;;;;;;;3.15;1.70;;;;;;;;;;5024578;28;20115;-69
2022/09/15 03:19:27;;;;;;;2.22;1.70;;;;;;;;;;5024513;28;20033;-69
2022/09/15 03:22:13;;;;;;;3.63;1.23;;;;;;;;;;5020167;28;20054;-68
2022/09/15 03:24:59;;;;;;;2.75;1.52;;;;;;;;;;5022853;28;20071;-69
2022/09/15 03:27:45;;;;;;;2.13;1.20;;;;;;;;;;5021688;28;20034;-68
2022/09/15 03:30:30;;;;;;;6.20;1.38;;;;;;;;;;5017772;28;20079;-65
2022/09/15 03:33:16;;;;;;;8.15;1.92;;;;;;;;;;5018099;28;20420;-63
2022/09/15 03:36:02;;;;;;;4.43;1.50;;;;;;;;;;5009344;28;20036;-64
2022/09/15 03:38:47;;;;;;;3.72;1.17;;;;;;;;;;5011331;28;20034;-63
2022/09/15 03:41:33;;;;;;;2.88;1.50;;;;;;;;;;5010182;28;20041;-62
2022/09/15 03:44:18;;;;;;;2.35;1.20;;;;;;;;;;5019222;28;20096;-64
2022/09/15 03:47:04;;;;;;;2.35;1.20;;;;;;;;;;5018437;28;20531;-64
2022/09/15 03:49:49;;;;;;;3.42;1.15;;;;;;;;;;5030437;28;20029;-64
2022/09/15 03:52:35;;;;;;;3.05;1.80;;;;;;;;;;5019763;28;20388;-63
2022/09/15 03:55:21;;;;;;;3.03;1.10;;;;;;;;;;5018686;28;20045;-63
2022/09/15 03:58:06;;;;;;;2.47;1.30;;;;;;;;;;5024801;28;20028;-63
2022/09/15 04:00:52;;;;;;;5.25;1.50;;;;;;;;;;5014427;28;20104;-63
2022/09/15 04:03:37;;;;;;;3.95;1.02;;;;;;;;;;5024026;28;20087;-63
2022/09/15 04:06:23;;;;;;;2.65;1.35;;;;;;;;;;5014109;28;20079;-70
2022/09/15 04:09:09;;;;;;;6.82;1.50;;;;;;;;;;5016684;28;20029;-71
2022/09/15 04:11:55;;;;;;;4.22;1.58;;;;;;;;;;5029754;28;20040;-70
2022/09/15 04:14:40;;;;;;;1.63;1.13;;;;;;;;;;5029450;28;20069;-71
2022/09/15 04:17:26;;;;;;;2.00;1.13;;;;;;;;;;5028197;28;20489;-70
2022/09/15 04:20:12;;;;;;;5.68;1.40;;;;;;;;;;5017873;28;20040;-70
2022/09/15 04:22:57;;;;;;;4.88;1.52;;;;;;;;;;5017832;28;20144;-69
2022/09/15 04:25:52;;;;;;;3.58;1.60;;;;;;;;;;5025928;28;20049;-71
2022/09/15 04:28:38;;;;;;;2.72;1.13;;;;;;;;;;5021930;28;20508;-64
2022/09/15 04:31:23;;;;;;;1.65;1.20;;;;;;;;;;5017921;28;20020;-64
2022/09/15 04:34:09;;;;;;;2.88;1.30;;;;;;;;;;5020779;28;20044;-64
2022/09/15 04:36:55;;;;;;;3.30;1.42;;;;;;;;;;5029982;28;21460;-63
2022/09/15 04:39:41;;;;;;;3.25;1.55;;;;;;;;;;5017806;28;21041;-63
2022/09/15 04:42:26;;;;;;;3.47;2.58;;;;;;;;;;5021744;28;20464;-65
2022/09/15 04:45:12;;;;;;;2.78;0.93;;;;;;;;;;5022147;28;20030;-66
2022/09/15 04:47:57;;;;;;;4.55;1.48;;;;;;;;;;5027175;28;20354;-64
2022/09/15 04:50:43;;;;;;;3.42;1.30;;;;;;;;;;5031210;28;20025;-63
2022/09/15 04:53:29;;;;;;;4.55;1.52;;;;;;;;;;5032094;28;20064;-64
2022/09/15 04:56:16;;;;;;;6.50;1.27;;;;;;;;;;5033274;28;20049;-64
2022/09/15 04:59:01;;;;;;;3.20;1.33;;;;;;;;;;5033661;28;20224;-64
2022/09/15 05:01:48;;;;;;;3.38;1.10;;;;;;;;;;5026238;28;20026;-69
2022/09/15 05:04:33;;;;;;;4.40;1.10;;;;;;;;;;5025986;28;20040;-67
2022/09/15 05:07:19;;;;;;;3.90;1.27;;;;;;;;;;5033145;28;20022;-66
2022/09/15 05:10:05;;;;;;;2.83;1.35;;;;;;;;;;5031408;28;20056;-70
2022/09/15 05:12:50;;;;;;;4.32;1.80;;;;;;;;;;5031245;28;20059;-69
2022/09/15 05:15:36;;;;;;;4.30;1.48;;;;;;;;;;5028907;28;20159;-68
2022/09/15 05:18:21;;;;;;;2.80;1.90;;;;;;;;;;5023891;28;20092;-63
2022/09/15 05:21:08;;;;;;;3.20;1.58;;;;;;;;;;5019621;28;20037;-69
2022/09/15 05:23:54;;;;;;;4.28;1.30;;;;;;;;;;5013621;28;20029;-70
2022/09/15 05:26:40;;;;;;;1.65;1.10;;;;;;;;;;5018110;28;20064;-70
2022/09/15 05:29:26;;;;;;;3.55;1.50;;;;;;;;;;5021223;28;20033;-71
2022/09/15 05:32:11;;;;;;;2.05;1.10;;;;;;;;;;5025852;28;20033;-70
2022/09/15 05:34:57;;;;;;;1.63;1.17;;;;;;;;;;5016124;28;20084;-72
2022/09/15 05:37:43;;;;;;;1.92;1.00;;;;;;;;;;5016656;28;20157;-78
2022/09/15 05:40:28;;;;;;;3.00;1.35;;;;;;;;;;5030873;28;20487;-70
2022/09/15 05:43:14;;;;;;;2.40;1.48;;;;;;;;;;5020065;28;20045;-71
2022/09/15 05:46:00;;;;;;;3.85;1.38;;;;;;;;;;5025745;28;20185;-72
2022/09/15 05:48:46;;;;;;;1.55;1.10;;;;;;;;;;5024487;28;20029;-72
2022/09/15 05:51:31;;;;;;;3.30;1.33;;;;;;;;;;5021470;28;20389;-72
2022/09/15 05:54:17;;;;;;;3.50;1.23;;;;;;;;;;5024821;28;20064;-71
2022/09/15 05:57:03;;;;;;;1.90;1.20;;;;;;;;;;5018582;28;20137;-86
2022/09/15 05:59:48;;;;;;;1.10;1.00;;;;;;;;;;5019897;28;20366;-71
2022/09/15 06:02:34;;;;;;;2.00;1.10;;;;;;;;;;5009824;28;20026;-71
2022/09/15 06:05:19;;;;;;;2.40;1.08;;;;;;;;;;5016705;28;20028;-70
2022/09/15 06:08:05;;;;;;;2.40;1.25;;;;;;;;;;5012389;28;20041;-70
2022/09/15 06:10:50;;;;;;;1.77;1.20;;;;;;;;;;5018951;28;20057;-69
2022/09/15 06:13:37;;;;;;;2.22;1.30;;;;;;;;;;5017286;28;20075;-78
2022/09/15 06:16:22;;;;;;;3.67;1.10;;;;;;;;;;5027715;28;20075;-75
2022/09/15 06:19:08;;;;;;;1.45;1.20;;;;;;;;;;5023631;28;20033;-70
2022/09/15 06:21:54;;;;;;;2.88;1.10;;;;;;;;;;5016765;28;20026;-70
2022/09/15 06:24:39;;;;;;;2.00;1.48;;;;;;;;;;5014425;28;20026;-70
2022/09/15 06:27:25;;;;;;;1.08;0.95;;;;;;;;;;5004810;28;20025;-70
2022/09/15 06:30:11;;;;;;;3.17;0.90;;;;;;;;;;5017646;28;20018;-70
2022/09/15 06:32:56;;;;;;;1.80;1.05;;;;;;;;;;5028196;28;20058;-76
2022/09/15 06:35:42;;;;;;;2.67;1.35;;;;;;;;;;5017430;28;20087;-79
2022/09/15 06:38:28;;;;;;;2.20;0.90;;;;;;;;;;5017321;28;20025;-81
2022/09/15 06:41:14;;;;;;;1.85;0.95;;;;;;;;;;5020275;28;20021;-76
2022/09/15 06:43:59;;;;;;;3.67;1.13;;;;;;;;;;5019574;28;20033;-78
2022/09/15 06:46:45;;;;;;;1.10;0.98;;;;;;;;;;5018197;28;20457;-80
2022/09/15 06:49:30;;;;;;;2.53;1.05;;;;;;;;;;5017487;28;20113;-79
2022/09/15 06:52:16;;;;;;;2.20;1.40;;;;;;;;;;5013774;28;20064;-77
2022/09/15 06:55:02;;;;;;;2.40;1.42;;;;;;;;;;5015033;28;20073;-74
2022/09/15 06:57:48;;;;;;;2.28;1.33;;;;;;;;;;5018532;28;20021;-73
2022/09/15 07:00:34;;;;;;;3.42;1.75;;;;;;;;;;5013250;28;20037;-73
2022/09/15 07:03:19;;;;;;;1.40;1.10;;;;;;;;;;5005330;28;20029;-73
2022/09/15 07:06:06;;;;;;;3.70;1.23;;;;;;;;;;5015632;28;20018;-73
2022/09/15 07:08:52;;;;;;;5.28;1.30;;;;;;;;;;5016668;28;20025;-73
2022/09/15 07:11:41;;;;;;;6.25;1.50;;;;;;;;;;5022312;28;20543;-81
2022/09/15 07:14:26;;;;;;;1.70;1.10;;;;;;;;;;5025609;28;20034;-83
2022/09/15 07:17:12;;;;;;;6.18;1.30;;;;;;;;;;5025039;28;20026;-84
2022/09/15 07:19:59;;;;;;;6.85;1.55;;;;;;;;;;4997827;28;20104;-83
2022/09/15 07:22:44;;;;;;;1.70;0.90;;;;;;;;;;5019778;28;20065;-81
2022/09/15 07:25:30;;;;;;;3.38;1.10;;;;;;;;;;5017876;28;20025;-78
2022/09/15 07:28:16;;;;;;;2.28;1.23;;;;;;;;;;5018685;28;20060;-83
2022/09/15 07:31:03;;;;;;;3.10;1.40;;;;;;;;;;4994220;28;20026;-79
2022/09/15 07:33:48;;;;;;;5.10;1.63;;;;;;;;;;5015880;28;20041;-80
2022/09/15 07:36:34;;;;;;;3.47;1.60;;;;;;;;;;5022573;28;20102;-83
2022/09/15 07:39:20;;;;;;;2.67;1.35;;;;;;;;;;5026997;28;20531;-80
2022/09/15 07:42:05;;;;;;;4.07;1.33;;;;;;;;;;5010316;28;20038;-80
2022/09/15 07:44:51;;;;;;;4.68;1.33;;;;;;;;;;5014055;28;20031;-80
2022/09/15 07:47:36;;;;;;;3.40;1.45;;;;;;;;;;5025664;28;20056;-82
2022/09/15 07:50:22;;;;;;;2.45;1.60;;;;;;;;;;5017855;28;20025;-74
2022/09/15 07:53:08;;;;;;;2.42;1.20;;;;;;;;;;5025410;28;20155;-73
2022/09/15 07:55:53;;;;;;;5.57;1.60;;;;;;;;;;5030047;28;20066;-74
2022/09/15 07:58:39;;;;;;;2.53;1.30;;;;;;;;;;5024723;28;20014;-74
2022/09/15 08:01:25;;;;;;;3.20;1.33;;;;;;;;;;5011977;28;20083;-74
2022/09/15 08:04:10;;;;;;;2.00;1.30;;;;;;;;;;5030136;28;20064;-78
2022/09/15 08:06:56;;;;;;;3.72;1.60;;;;;;;;;;5017363;28;20026;-77
2022/09/15 08:09:41;;;;;;;4.82;1.20;;;;;;;;;;5015016;28;20022;-74
2022/09/15 08:12:29;;;;;;;2.45;1.33;;;;;;;;;;4998821;28;20491;-74
2022/09/15 08:15:15;;;;;;;2.78;1.05;;;;;;;;;;5016717;28;20484;-74
2022/09/15 08:18:01;;;;;;;5.28;1.33;;;;;;;;;;5026443;28;20079;-73
2022/09/15 08:20:46;;;;;;;1.92;1.10;;;;;;;;;;5014381;28;20029;-74
2022/09/15 08:23:32;;;;;;;2.60;1.13;;;;;;;;;;5018557;28;20109;-73
2022/09/15 08:26:19;;;;;;;2.45;1.02;;;;;;;;;;5021776;28;20064;-73
2022/09/15 08:29:05;;;;;;;2.03;1.30;;;;;;;;;;5011795;28;20481;-73
2022/09/15 08:31:50;;;;;;;2.88;1.20;;;;;;;;;;5018636;28;20032;-73
2022/09/15 08:34:36;;;;;;;3.58;1.98;;;;;;;;;;5016616;28;20112;-73
2022/09/15 08:37:21;;;;;;;3.70;1.20;;;;;;;;;;5013839;28;20025;-73
2022/09/15 08:40:13;;;;;;;1.75;1.00;;;;;;;;;;5015505;28;20393;-74
2022/09/15 08:43:03;;;;;;;3.70;1.10;;;;;;;;;;5027915;28;20505;-75
2022/09/15 08:45:52;;;;;;;2.85;1.27;;;;;;;;;;5016975;28;20227;-76
2022/09/15 08:48:40;;;;;;;4.03;1.15;;;;;;;;;;5031272;28;20032;-76
2022/09/15 08:51:29;;;;;;;3.90;1.42;;;;;;;;;;5018188;28;20029;-75
2022/09/15 08:54:15;;;;;;;;;;;;;;;;;;5033701;28;20404;-77
2022/09/15 08:57:02;;;;;;;2.05;1.50;;;;;;;;;;5020154;28;19905;-78
2022/09/15 08:59:47;;;;;;;2.65;1.10;;;;;;;;;;5010192;28;20048;-76
2022/09/15 09:02:36;;;;;;;2.30;1.23;;;;;;;;;;5012225;28;20025;-73
2022/09/15 09:05:33;;;;;;;3.50;1.47;;;;;;;;;;5017876;28;20105;-74
2022/09/15 09:08:31;;;;;;;3.25;1.27;;;;;;;;;;5022328;28;20025;-72
2022/09/15 09:11:35;;;;;;;2.20;1.23;;;;;;;;;;5009662;28;20033;-71
2022/09/15 09:14:30;;;;;;;4.57;1.33;;;;;;;;;;5016274;28;20062;-74
2022/09/15 09:17:16;;;;;;;2.33;1.10;;;;;;;;;;5004944;28;20106;-76
2022/09/15 09:20:13;;;;;;;2.58;0.98;;;;;;;;;;5029455;28;20083;-77
2022/09/15 09:23:00;;;;;;;2.03;1.02;;;;;;;;;;5027849;28;20018;-73
2022/09/15 09:25:47;;;;;;;4.88;1.00;;;;;;;;;;5019631;28;20100;-71
2022/09/15 09:28:38;;;;;;;4.47;1.20;;;;;;;;;;5024082;28;20056;-71
2022/09/15 09:31:24;;;;;;;1.20;1.08;;;;;;;;;;5012795;28;20021;-72
2022/09/15 09:34:26;;;;;;;3.15;1.15;;;;;;;;;;5010371;28;20242;-73
2022/09/15 09:37:13;;;;;;;3.22;1.65;;;;;;;;;;5018877;28;20033;-72
2022/09/15 09:39:59;;;;;;;4.80;1.17;;;;;;;;;;5019207;28;20558;-77
2022/09/15 09:42:45;;;;;;;4.28;1.13;;;;;;;;;;5020542;28;20033;-77
2022/09/15 09:45:30;;;;;;;2.83;1.40;;;;;;;;;;5021066;28;20504;-78
2022/09/15 09:48:20;;;;;;;5.50;1.23;;;;;;;;;;5024288;28;20107;-77
2022/09/15 09:51:25;;;;;;;1.58;1.15;;;;;;;;;;5014959;28;20049;-77
2022/09/15 09:54:15;;;;;;;2.80;1.50;;;;;;;;;;5017405;28;20034;-78
2022/09/15 09:57:13;;;;;;;3.55;1.58;;;;;;;;;;5027660;28;20033;-80
2022/09/15 09:59:58;;;;;;;1.63;1.35;;;;;;;;;;5009149;28;20055;-78
2022/09/15 10:02:47;;;;;;;3.33;1.23;;;;;;;;;;5016556;28;20485;-78
2022/09/15 10:05:32;;;;;;;1.57;1.00;;;;;;;;;;5015001;28;20017;-80
2022/09/15 10:08:19;;;;;;;1.45;0.70;;;;;;;;;;5022497;28;20037;-81
2022/09/15 10:11:06;;;;;;;0.98;0.82;;;;;;;;;;5005127;28;20021;-80
2022/09/15 10:13:53;;;;;;;3.70;0.82;;;;;;;;;;5020396;28;20030;-75
2022/09/15 10:16:39;;;;;;;1.30;0.70;;;;;;;;;;5028483;28;20028;-81
2022/09/15 10:19:25;;;;;;;0.60;0.60;;;;;;;;;;5023193;28;20036;-81
2022/09/15 10:22:22;;;;;;;0.73;0.60;;;;;;;;;;5024838;28;20309;-82
2022/09/15 10:25:19;;;;;;;1.27;0.55;;;;;;;;;;5024185;28;20036;-78
2022/09/15 10:28:08;;;;;;;0.95;0.85;;;;;;;;;;5019030;28;20060;-78
2022/09/15 10:31:09;;;;;;;1.20;0.60;;;;;;;;;;5017148;28;20044;-78
2022/09/15 10:33:55;;;;;;;0.50;0.47;;;;;;;;;;5020262;28;20064;-69
2022/09/15 10:36:40;;;;;;;1.95;0.55;;;;;;;;;;5012385;28;20018;-73
2022/09/15 10:39:38;;;;;;;0.63;0.50;;;;;;;;;;5005725;28;20456;-73
2022/09/15 10:42:44;;;;;;;1.40;0.63;;;;;;;;;;5019873;28;20057;-73
2022/09/15 10:45:41;;;;;;;1.83;0.70;;;;;;;;;;5018756;28;20022;-73
2022/09/15 10:48:43;;;;;;;3.03;0.60;;;;;;;;;;5031017;28;20079;-71
2022/09/15 10:51:35;;;;;;;2.60;0.70;;;;;;;;;;5020266;28;20410;-74
2022/09/15 10:54:29;;;;;;;1.48;0.75;;;;;;;;;;5027955;28;20061;-71
2022/09/15 10:57:35;;;;;;;0.85;0.85;;;;;;;;;;5018186;28;20030;-72
2022/09/15 11:00:22;;;;;;;1.30;0.60;;;;;;;;;;5020839;28;20037;-76
2022/09/15 11:03:45;;;;;;;1.58;0.90;;;;;;;;;;5030021;28;20503;-74
2022/09/15 11:06:49;;;;;;;1.67;0.93;;;;;;;;;;4954491;28;20026;-75
2022/09/15 11:09:40;;;;;;;1.13;1.02;;;;;;;;;;5022983;28;20388;-79
2022/09/15 11:12:29;;;;;;;1.42;1.15;;;;;;;;;;5029694;28;20151;-71
2022/09/15 11:15:33;;;;;;;1.95;1.10;;;;;;;;;;5026075;28;20038;-71
2022/09/15 11:18:21;;;;;;;3.58;1.20;;;;;;;;;;5026464;28;20060;-70
2022/09/15 11:21:18;;;;;;;3.83;1.80;;;;;;;;;;5012319;28;20071;-70
2022/09/15 11:24:22;;;;;;;3.05;1.60;;;;;;;;;;5013686;28;20389;-70
2022/09/15 11:27:10;;;;;;;1.63;1.38;;;;;;;;;;5018607;28;20032;-69
2022/09/15 11:30:04;;;;;;;4.35;1.70;;;;;;;;;;5014481;28;20084;-80
2022/09/15 11:32:50;;;;;;;3.13;1.50;;;;;;;;;;5014775;28;20065;-81
2022/09/15 11:35:38;;;;;;;5.78;2.22;;;;;;;;;;5019970;28;20075;-78
2022/09/15 11:38:34;;;;;;;2.95;1.45;;;;;;;;;;5011139;28;20480;-81
2022/09/15 11:41:40;;;;;;;4.70;2.03;;;;;;;;;;5014806;28;20041;-77
2022/09/15 11:44:28;;;;;;;3.22;1.63;;;;;;;;;;5017710;28;20048;-78
2022/09/15 11:47:20;;;;;;;2.78;1.50;;;;;;;;;;5010149;28;20021;-75
2022/09/15 11:50:21;;;;;;;1.85;1.50;;;;;;;;;;5019378;28;20033;-77
2022/09/15 11:53:20;;;;;;;2.47;1.58;;;;;;;;;;5022746;28;20036;-74
2022/09/15 11:56:26;;;;;;;5.13;1.88;;;;;;;;;;5007829;28;20041;-75
2022/09/15 11:59:38;;;;;;;6.18;1.70;;;;;;;;;;5006879;28;20037;-74
2022/09/15 12:02:29;;;;;;;5.82;2.25;;;;;;;;;;5014750;28;20018;-75
2022/09/15 12:05:31;;;;;;;4.65;2.10;;;;;;;;;;5016754;28;20030;-73
2022/09/15 12:08:27;;;;;;;4.75;2.13;;;;;;;;;;5030046;28;20507;-72
2022/09/15 12:11:17;;;;;;;4.68;2.30;;;;;;;;;;5030451;28;20033;-73
2022/09/15 12:14:03;;;;;;;3.70;1.83;;;;;;;;;;5022657;28;20116;-74
2022/09/15 12:16:49;;;;;;;5.22;2.40;;;;;;;;;;5025951;28;20017;-75
2022/09/15 12:19:39;;;;;;;4.72;2.13;;;;;;;;;;5010320;28;20079;-77
2022/09/15 12:22:42;;;;;;;3.63;2.28;;;;;;;;;;5024374;28;20098;-72
2022/09/15 12:25:37;;;;;;;3.58;1.92;;;;;;;;;;5023437;28;20060;-72
2022/09/15 12:28:23;;;;;;;3.53;1.80;;;;;;;;;;5020429;28;20029;-72
2022/09/15 12:31:21;;;;;;;4.78;2.35;;;;;;;;;;5009578;28;20026;-72
2022/09/15 12:34:26;;;;;;;3.47;2.30;;;;;;;;;;5016686;28;20045;-75
2022/09/15 12:37:12;;;;;;;4.60;2.22;;;;;;;;;;5004520;28;20484;-75
2022/09/15 12:39:58;;;;;;;5.78;2.03;;;;;;;;;;5006577;28;20021;-71
2022/09/15 12:42:44;;;;;;;4.15;2.20;;;;;;;;;;5005169;28;20030;-75
2022/09/15 12:45:32;;;;;;;6.38;3.28;;;;;;;;;;5032092;28;20583;-71
2022/09/15 12:48:21;;;;;;;3.88;2.22;;;;;;;;;;5030460;28;20025;-73
2022/09/15 12:51:11;;;;;;;3.63;1.92;;;;;;;;;;5033164;28;20021;-71
2022/09/15 12:54:03;;;;;;;2.88;2.13;;;;;;;;;;5009975;28;20039;-71
2022/09/15 12:56:50;;;;;;;4.03;2.22;;;;;;;;;;5026898;28;20075;-72
2022/09/15 12:59:36;;;;;;;5.63;2.95;;;;;;;;;;5032581;28;20393;-73
2022/09/15 13:02:41;;;;;;;5.40;2.80;;;;;;;;;;5027117;28;20408;-69
2022/09/15 13:05:42;;;;;;;5.20;2.47;;;;;;;;;;5026830;28;20021;-69
2022/09/15 13:08:28;;;;;;;8.32;3.60;;;;;;;;;;5021954;28;20041;-69
2022/09/15 13:11:19;;;;;;;4.07;2.10;;;;;;;;;;5032858;28;20021;-73
2022/09/15 13:14:14;;;;;;;7.45;2.80;;;;;;;;;;5015884;28;20120;-70
2022/09/15 13:17:15;;;;;;;3.78;2.00;;;;;;;;;;5016750;28;20018;-74
2022/09/15 13:20:07;;;;;;;4.80;2.00;;;;;;;;;;5025538;28;20043;-83
2022/09/15 13:22:55;;;;;;;6.10;2.15;;;;;;;;;;5027505;28;20053;-79
2022/09/15 13:25:42;;;;;;;4.75;2.20;;;;;;;;;;5020128;28;20358;-76
2022/09/15 13:28:28;;;;;;;5.38;2.45;;;;;;;;;;5025452;28;20385;-76
2022/09/15 13:31:34;;;;;;;5.07;2.00;;;;;;;;;;5027521;28;20030;-77
2022/09/15 13:34:32;;;;;;;5.03;1.98;;;;;;;;;;5018108;28;20480;-78
2022/09/15 13:37:37;;;;;;;6.50;2.17;;;;;;;;;;5018988;28;20626;-76
2022/09/15 13:40:26;;;;;;;8.63;2.22;;;;;;;;;;5025424;28;20037;-70
2022/09/15 13:43:14;;;;;;;6.47;2.05;;;;;;;;;;4996270;28;20434;-71
2022/09/15 13:46:06;;;;;;;2.67;1.77;;;;;;;;;;5019062;28;20036;-71
2022/09/15 13:48:54;;;;;;;8.35;2.20;;;;;;;;;;5010174;28;20029;-71
2022/09/15 13:51:43;;;;;;;3.93;2.10;;;;;;;;;;5028788;28;20056;-70
2022/09/15 13:54:29;;;;;;;5.10;2.33;;;;;;;;;;5017110;28;20065;-76
2022/09/15 13:57:14;;;;;;;5.57;2.65;;;;;;;;;;5022941;28;20753;-74
2022/09/15 14:00:02;;;;;;;3.95;1.90;;;;;;;;;;5030186;28;20495;-74
2022/09/15 14:02:49;;;;;;;3.15;2.10;;;;;;;;;;5021953;28;20080;-74
2022/09/15 14:05:35;;;;;;;5.18;2.00;;;;;;;;;;5012099;28;20025;-75
2022/09/15 14:08:31;;;;;;;4.93;3.05;;;;;;;;;;5005163;28;20030;-76
2022/09/15 14:11:20;;;;;;;8.00;2.88;;;;;;;;;;5021623;28;20080;-76
2022/09/15 14:14:06;;;;;;;;;;;;;;;;;;5017573;28;20037;-79
2022/09/15 14:16:53;;;;;;;4.28;2.20;;;;;;;;;;5000938;28;19909;-75
2022/09/15 14:19:40;;;;;;;4.07;1.80;;;;;;;;;;5025920;28;20036;-74
2022/09/15 14:22:27;;;;;;;4.70;2.30;;;;;;;;;;5028536;28;20044;-75
2022/09/15 14:25:16;;;;;;;5.32;1.90;;;;;;;;;;5017658;28;20025;-76
2022/09/15 14:28:02;;;;;;;4.05;2.60;;;;;;;;;;5025161;28;20689;-76
2022/09/15 14:30:48;;;;;;;5.13;2.15;;;;;;;;;;5019820;28;20030;-74
2022/09/15 14:33:35;;;;;;;2.88;1.98;;;;;;;;;;5012195;28;20040;-75
2022/09/15 14:36:23;;;;;;;5.32;2.10;;;;;;;;;;5012644;28;20466;-79
2022/09/15 14:39:19;;;;;;;5.63;2.33;;;;;;;;;;5021223;28;20037;-80
2022/09/15 14:42:20;;;;;;;6.90;2.13;;;;;;;;;;5026395;28;20028;-85
2022/09/15 14:45:08;;;;;;;4.38;2.35;;;;;;;;;;5024889;28;20036;-80
2022/09/15 14:47:58;;;;;;;5.70;2.20;;;;;;;;;;5023258;28;20026;-81
2022/09/15 14:50:45;;;;;;;4.20;2.28;;;;;;;;;;5028504;28;20025;-74
2022/09/15 14:53:34;;;;;;;5.38;2.45;;;;;;;;;;5025962;28;20544;-75
2022/09/15 14:56:21;;;;;;;4.85;1.90;;;;;;;;;;4998399;28;20057;-74
2022/09/15 14:59:10;;;;;;;5.60;2.70;;;;;;;;;;5010179;28;20527;-75
2022/09/15 15:02:09;;;;;;;4.88;2.38;;;;;;;;;;5014002;28;20057;-75
2022/09/15 15:05:07;;;;;;;4.20;2.22;;;;;;;;;;5011695;28;20030;-73
2022/09/15 15:07:54;;;;;;;3.17;2.45;;;;;;;;;;5023611;28;20037;-75
2022/09/15 15:10:40;;;;;;;5.32;2.65;;;;;;;;;;5001283;28;20017;-77
2022/09/15 15:13:25;;;;;;;4.40;2.53;;;;;;;;;;5020922;28;20500;-74
2022/09/15 15:16:17;;;;;;;6.60;3.13;;;;;;;;;;5015064;28;20042;-73
2022/09/15 15:19:03;;;;;;;3.60;2.47;;;;;;;;;;5009164;28;20105;-73
2022/09/15 15:21:49;;;;;;;3.38;2.13;;;;;;;;;;5020615;28;20037;-72
2022/09/15 15:24:38;;;;;;;4.10;2.38;;;;;;;;;;5023977;28;20026;-74
2022/09/15 15:27:24;;;;;;;3.40;2.40;;;;;;;;;;5011604;28;20026;-74
2022/09/15 15:30:31;;;;;;;6.60;3.47;;;;;;;;;;5017432;28;20084;-73
2022/09/15 15:33:18;;;;;;;4.15;2.40;;;;;;;;;;5016998;28;20055;-73
2022/09/15 15:36:04;;;;;;;5.25;2.35;;;;;;;;;;5020377;28;20055;-74
2022/09/15 15:38:51;;;;;;;4.65;2.50;;;;;;;;;;5007360;28;20030;-74
2022/09/15 15:41:40;;;;;;;5.85;2.60;;;;;;;;;;5019473;28;20029;-73
2022/09/15 15:44:26;;;;;;;3.90;1.90;;;;;;;;;;5019919;28;20068;-70
2022/09/15 15:47:12;;;;;;;7.60;2.50;;;;;;;;;;5012877;28;20038;-71
2022/09/15 15:50:18;;;;;;;6.35;2.65;;;;;;;;;;5022098;28;20033;-74
2022/09/15 15:53:04;;;;;;;5.00;2.60;;;;;;;;;;5026037;28;20026;-74
2022/09/15 15:55:50;;;;;;;5.35;2.88;;;;;;;;;;5021924;28;20037;-72
2022/09/15 15:58:35;;;;;;;6.72;2.45;;;;;;;;;;5030169;28;20029;-73
2022/09/15 16:01:21;;;;;;;7.25;2.72;;;;;;;;;;5023889;28;20397;-74
2022/09/15 16:04:06;;;;;;;3.60;2.47;;;;;;;;;;5026333;28;20030;-85
2022/09/15 16:06:52;;;;;;;4.32;2.42;;;;;;;;;;5026466;28;20022;-73
2022/09/15 16:09:37;;;;;;;6.10;2.47;;;;;;;;;;5029956;28;20026;-74
2022/09/15 16:12:23;;;;;;;4.38;2.20;;;;;;;;;;5019981;28;20029;-74
2022/09/15 16:15:10;;;;;;;5.55;2.40;;;;;;;;;;5016865;28;20038;-72
2022/09/15 16:17:55;;;;;;;3.72;2.20;;;;;;;;;;5020343;28;20440;-72
2022/09/15 16:20:41;;;;;;;6.22;2.97;;;;;;;;;;5013131;28;20024;-73
2022/09/15 16:23:27;;;;;;;6.20;2.60;;;;;;;;;;5014342;28;20429;-74
2022/09/15 16:26:14;;;;;;;6.53;2.67;;;;;;;;;;5011775;28;20054;-73
2022/09/15 16:29:00;;;;;;;5.28;2.35;;;;;;;;;;5022372;28;20025;-72
2022/09/15 16:31:46;;;;;;;4.63;2.85;;;;;;;;;;5006108;28;20108;-73
2022/09/15 16:34:31;;;;;;;5.60;2.80;;;;;;;;;;5026343;28;20021;-72
2022/09/15 16:37:17;;;;;;;4.07;2.30;;;;;;;;;;5025123;28;20025;-73
2022/09/15 16:40:02;;;;;;;5.50;3.17;;;;;;;;;;5021038;28;20406;-71
2022/09/15 16:42:48;;;;;;;6.57;3.35;;;;;;;;;;5011382;28;20140;-69
2022/09/15 16:45:35;;;;;;;7.43;2.80;;;;;;;;;;5021352;28;20564;-70
2022/09/15 16:48:20;;;;;;;5.22;2.92;;;;;;;;;;5022411;28;20552;-70
2022/09/15 16:51:09;;;;;;;5.20;2.50;;;;;;;;;;5028059;28;20029;-69
2022/09/15 16:53:55;;;;;;;6.07;2.83;;;;;;;;;;5031378;28;20554;-72
2022/09/15 16:56:41;;;;;;;8.55;3.53;;;;;;;;;;5023850;28;20492;-68
2022/09/15 16:59:26;;;;;;;5.15;2.60;;;;;;;;;;5020748;28;20113;-70